< < Back
Terminal Aerodrome Forecast


Current Version              Previous Versions:   1  2  3  4  5  6  7  8  9  

Terminal Aerodrome Forecast

454
FTUS42 KGSP 281137
TAFAND
TAF
KAND 281137Z 2812/2912 30005KT P6SM FEW250
     FM281900 29012G18KT P6SM SKC
     FM290300 01005KT P6SM SKC=

Latest METAR

922
SAUS70 KWBC 291000
MTRAND
METAR KAND 290956Z AUTO 05008KT 10SM CLR 00/M10 A3034 RMK AO2 SLP274
T00001100


USA.gov is the U.S. government's official web portal to all federal, state and local government web resources and services.